Time;durP1;ratioP1;P1;durP2;ratioP2;P2;SDS_P1;SDS_P2;PMS_P1;PMS_P2;Temp;Humidity;BMP_temperature;BMP_pressure;BME280_temperature;BME280_humidity;BME280_pressure;Samples;Min_cycle;Max_cycle;Signal;HPM_P1;HPM_P2
2022/06/12 00:01:16;;;;;;;;;;;;;;;;;;5042139;28;1148;-72
2022/06/12 00:03:44;;;;;;;;;;;;;;;;;;5051357;28;894;-72
2022/06/12 00:06:10;;;;;;;;;;;;;;;;;;5032209;28;1478;-71
2022/06/12 00:08:37;;;;;;;;;;;;;;;;;;5035411;28;1443;-73
2022/06/12 00:11:04;;;;;;;;;;;;;;;;;;5041487;28;1154;-73
2022/06/12 00:13:32;;;;;;;;;;;;;;;;;;5042138;28;1383;-73
2022/06/12 00:15:58;;;;;;;;;;;;;;;;;;5041086;28;1562;-72
2022/06/12 00:18:25;;;;;;;;;;;;;;;;;;5036952;28;1910;-72
2022/06/12 00:21:10;;;;;;;;;;;;;;;;;;5051166;28;1061;-73
2022/06/12 00:23:36;;;;;;;;;;;;;;;;;;5046823;28;1491;-73
2022/06/12 00:26:03;;;;;;;;;;;;;;;;;;5042306;28;1400;-73
2022/06/12 00:28:29;;;;;;;;;;;;;;;;;;5030518;28;1498;-72
2022/06/12 00:30:55;;;;;;;;;;;;;;;;;;5032952;28;1736;-73
2022/06/12 00:33:21;;;;;;;;;;;;;;;;;;5037325;28;1171;-72
2022/06/12 00:35:47;;;;;;;;;;;;;;;;;;5040520;28;1456;-72
2022/06/12 00:38:15;;;;;;;;;;;;;;;;;;5030022;28;1910;-70
2022/06/12 00:40:41;;;;;;;;;;;;;;;;;;5039196;28;1345;-71
2022/06/12 00:43:08;;;;;;;;;;;;;;;;;;5040686;28;1368;-71
2022/06/12 00:45:40;;;;;;;;;;;;;;;;;;5036222;28;1682;-71
2022/06/12 00:48:08;;;;;;;;;;;;;;;;;;5040752;28;1395;-71
2022/06/12 00:50:34;;;;;;;;;;;;;;;;;;5044047;28;1471;-71
2022/06/12 00:53:00;;;;;;;;;;;;;;;;;;5037915;28;1475;-72
2022/06/12 00:55:30;;;;;;;;;;;;;;;;;;5041162;28;1353;-72
2022/06/12 00:57:57;;;;;;;;;;;;;;;;;;5038172;28;1977;-71
2022/06/12 01:00:23;;;;;;;;;;;;;;;;;;5039363;28;1423;-72
2022/06/12 01:02:50;;;;;;;;;;;;;;;;;;5041603;28;1360;-72
2022/06/12 01:08:01;;;;;;;;;;;;;;;;;;5053436;28;1335;-71
2022/06/12 01:10:28;;;;;;;;;;;;;;;;;;5037810;28;1408;-71
2022/06/12 01:12:55;;;;;;;;;;;;;;;;;;5037534;28;1582;-70
2022/06/12 01:15:23;;;;;;;;;;;;;;;;;;5029457;28;1372;-72
2022/06/12 01:17:49;;;;;;;;;;;;;;;;;;5037826;28;1975;-70
2022/06/12 01:20:16;;;;;;;;;;;;;;;;;;5041280;28;1419;-70
2022/06/12 01:22:57;;;;;;;;;;;;;;;;;;5041053;28;1345;-71
2022/06/12 01:25:47;;;;;;;;;;;;;;;;;;5031431;28;1420;-71
2022/06/12 01:28:37;;;;;;;;;;;;;;;;;;4954208;28;1736;-71
2022/06/12 01:31:09;;;;;;;;;;;;;;;;;;5038750;28;1388;-72
2022/06/12 01:33:37;;;;;;;;;;;;;;;;;;5041623;28;1408;-71
2022/06/12 01:36:06;;;;;;;;;;;;;;;;;;5040403;28;1382;-72
2022/06/12 01:38:33;;;;;;;;;;;;;;;;;;5034968;28;1985;-71
2022/06/12 01:40:59;;;;;;;;;;;;;;;;;;5041932;28;1130;-72
2022/06/12 01:43:27;;;;;;;;;;;;;;;;;;5038414;28;1462;-72
2022/06/12 01:45:55;;;;;;;;;;;;;;;;;;5039348;28;1384;-72
2022/06/12 01:48:26;;;;;;;;;;;;;;;;;;5042777;28;1438;-72
2022/06/12 01:50:55;;;;;;;;;;;;;;;;;;5045598;28;1169;-72
2022/06/12 01:53:24;;;;;;;;;;;;;;;;;;5043938;28;1462;-71
2022/06/12 01:55:52;;;;;;;;;;;;;;;;;;5044003;28;1353;-72
2022/06/12 01:58:19;;;;;;;;;;;;;;;;;;5039852;28;1983;-71
2022/06/12 02:00:46;;;;;;;;;;;;;;;;;;5040313;28;1396;-72
2022/06/12 02:03:13;;;;;;;;;;;;;;;;;;5045087;28;1367;-71
2022/06/12 02:05:43;;;;;;;;;;;;;;;;;;5053741;28;995;-72
2022/06/12 02:08:10;;;;;;;;;;;;;;;;;;5037656;28;1427;-72
2022/06/12 02:10:37;;;;;;;;;;;;;;;;;;5048572;28;1107;-72
2022/06/12 02:13:13;;;;;;;;;;;;;;;;;;5038645;28;1427;-72
2022/06/12 02:15:42;;;;;;;;;;;;;;;;;;5042201;28;1407;-72
2022/06/12 02:18:10;;;;;;;;;;;;;;;;;;5040482;28;1910;-72
2022/06/12 02:20:37;;;;;;;;;;;;;;;;;;5041299;28;1226;-71
2022/06/12 02:23:06;;;;;;;;;;;;;;;;;;5045638;28;1399;-72
2022/06/12 02:25:33;;;;;;;;;;;;;;;;;;5047503;28;1212;-72
2022/06/12 02:28:01;;;;;;;;;;;;;;;;;;5041593;28;1482;-72
2022/06/12 02:30:29;;;;;;;;;;;;;;;;;;5026503;28;1419;-71
2022/06/12 02:32:57;;;;;;;;;;;;;;;;;;5044410;28;1372;-71
2022/06/12 02:35:24;;;;;;;;;;;;;;;;;;5045873;28;1138;-70
2022/06/12 02:37:51;;;;;;;;;;;;;;;;;;5047084;28;1926;-70
2022/06/12 02:40:19;;;;;;;;;;;;;;;;;;5045026;28;1146;-71
2022/06/12 02:42:46;;;;;;;;;;;;;;;;;;5038475;28;1442;-72
2022/06/12 02:45:13;;;;;;;;;;;;;;;;;;5044417;28;1410;-72
2022/06/12 02:47:40;;;;;;;;;;;;;;;;;;5047475;28;1388;-72
2022/06/12 02:50:07;;;;;;;;;;;;;;;;;;5037284;28;1415;-72
2022/06/12 02:52:34;;;;;;;;;;;;;;;;;;5039612;28;1467;-72
2022/06/12 02:55:03;;;;;;;;;;;;;;;;;;5041449;28;1474;-72
2022/06/12 02:57:32;;;;;;;;;;;;;;;;;;5043615;28;1987;-72
2022/06/12 03:00:03;;;;;;;;;;;;;;;;;;5036977;28;1423;-72
2022/06/12 03:02:30;;;;;;;;;;;;;;;;;;5035138;28;1397;-72
2022/06/12 03:04:57;;;;;;;;;;;;;;;;;;5030473;28;1357;-72
2022/06/12 03:07:23;;;;;;;;;;;;;;;;;;5038482;28;1414;-72
2022/06/12 03:09:49;;;;;;;;;;;;;;;;;;5043888;28;1401;-72
2022/06/12 03:12:16;;;;;;;;;;;;;;;;;;5040680;28;1463;-72
2022/06/12 03:14:43;;;;;;;;;;;;;;;;;;5036832;28;1452;-71
2022/06/12 03:17:09;;;;;;;;;;;;;;;;;;5041337;28;1447;-72
2022/06/12 03:19:42;;;;;;;;;;;;;;;;;;5032950;28;1916;-72
2022/06/12 03:22:10;;;;;;;;;;;;;;;;;;5044702;28;1441;-71
2022/06/12 03:24:38;;;;;;;;;;;;;;;;;;5036921;28;1371;-72
2022/06/12 03:27:06;;;;;;;;;;;;;;;;;;5041404;28;1475;-72
2022/06/12 03:29:34;;;;;;;;;;;;;;;;;;5043528;28;1497;-72
2022/06/12 03:32:02;;;;;;;;;;;;;;;;;;5043216;28;1470;-71
2022/06/12 03:34:30;;;;;;;;;;;;;;;;;;5032724;28;1574;-72
2022/06/12 03:36:57;;;;;;;;;;;;;;;;;;5039498;28;1112;-72
2022/06/12 03:39:25;;;;;;;;;;;;;;;;;;5051349;28;1914;-72
2022/06/12 03:41:53;;;;;;;;;;;;;;;;;;5033967;28;1448;-71
2022/06/12 03:44:20;;;;;;;;;;;;;;;;;;5030534;28;1443;-72
2022/06/12 03:46:47;;;;;;;;;;;;;;;;;;5035047;28;1473;-72
2022/06/12 03:49:16;;;;;;;;;;;;;;;;;;5029226;28;1487;-72
2022/06/12 03:51:43;;;;;;;;;;;;;;;;;;5035761;28;1083;-72
2022/06/12 03:54:12;;;;;;;;;;;;;;;;;;5034561;28;1387;-71
2022/06/12 03:59:24;;;;;;;;;;;;;;;;;;5032917;28;1915;-71
2022/06/12 04:01:51;;;;;;;;;;;;;;;;;;5042858;28;1225;-71
2022/06/12 04:04:20;;;;;;;;;;;;;;;;;;5035925;28;1434;-72
2022/06/12 04:06:46;;;;;;;;;;;;;;;;;;5039050;28;1173;-72
2022/06/12 04:09:14;;;;;;;;;;;;;;;;;;5030317;28;1320;-71
2022/06/12 04:11:41;;;;;;;;;;;;;;;;;;5023779;28;1515;-70
2022/06/12 04:14:07;;;;;;;;;;;;;;;;;;5028169;28;1408;-71
2022/06/12 04:16:35;;;;;;;;;;;;;;;;;;5037792;28;1376;-72
2022/06/12 04:19:01;;;;;;;;;;;;;;;;;;5040826;28;1997;-72
2022/06/12 04:21:31;;;;;;;;;;;;;;;;;;5033177;28;1400;-73
2022/06/12 04:23:59;;;;;;;;;;;;;;;;;;5036101;28;1420;-70
2022/06/12 04:26:27;;;;;;;;;;;;;;;;;;5037572;28;1430;-71
2022/06/12 04:28:57;;;;;;;;;;;;;;;;;;5038862;28;1525;-69
2022/06/12 04:31:23;;;;;;;;;;;;;;;;;;5048770;28;1432;-71
2022/06/12 04:33:56;;;;;;;;;;;;;;;;;;5032853;28;1467;-71
2022/06/12 04:36:22;;;;;;;;;;;;;;;;;;5036572;28;1432;-72
2022/06/12 04:38:51;;;;;;;;;;;;;;;;;;5047050;28;1984;-72
2022/06/12 04:41:19;;;;;;;;;;;;;;;;;;5035102;28;1423;-72
2022/06/12 04:43:45;;;;;;;;;;;;;;;;;;5042238;28;1375;-73
2022/06/12 04:46:11;;;;;;;;;;;;;;;;;;5031097;28;1380;-71
2022/06/12 04:48:38;;;;;;;;;;;;;;;;;;5028400;28;1462;-72
2022/06/12 04:51:05;;;;;;;;;;;;;;;;;;5030098;28;1376;-71
2022/06/12 04:53:31;;;;;;;;;;;;;;;;;;5037620;28;1533;-72
2022/06/12 04:55:59;;;;;;;;;;;;;;;;;;5030623;28;1102;-72
2022/06/12 04:58:25;;;;;;;;;;;;;;;;;;5019679;28;1920;-73
2022/06/12 05:00:51;;;;;;;;;;;;;;;;;;5047651;28;1627;-72
2022/06/12 05:03:18;;;;;;;;;;;;;;;;;;5032157;28;1414;-71
2022/06/12 05:05:44;;;;;;;;;;;;;;;;;;5029090;28;1494;-71
2022/06/12 05:08:10;;;;;;;;;;;;;;;;;;5047429;28;1333;-71
2022/06/12 05:10:37;;;;;;;;;;;;;;;;;;5034259;28;1279;-72
2022/06/12 05:13:05;;;;;;;;;;;;;;;;;;5028401;28;1255;-71
2022/06/12 05:15:31;;;;;;;;;;;;;;;;;;5030241;28;1410;-71
2022/06/12 05:17:57;;;;;;;;;;;;;;;;;;5036755;28;1467;-71
2022/06/12 05:20:24;;;;;;;;;;;;;;;;;;5050737;28;1911;-70
2022/06/12 05:22:51;;;;;;;;;;;;;;;;;;5052086;28;1123;-71
2022/06/12 05:25:18;;;;;;;;;;;;;;;;;;5036579;28;1503;-71
2022/06/12 05:27:45;;;;;;;;;;;;;;;;;;5036525;28;1533;-70
2022/06/12 05:30:14;;;;;;;;;;;;;;;;;;5015513;28;1473;-68
2022/06/12 05:32:40;;;;;;;;;;;;;;;;;;5042813;28;992;-71
2022/06/12 05:35:07;;;;;;;;;;;;;;;;;;5051987;28;1147;-71
2022/06/12 05:37:34;;;;;;;;;;;;;;;;;;5051648;28;1159;-70
2022/06/12 05:40:00;;;;;;;;;;;;;;;;;;5039967;28;1946;-70
2022/06/12 05:42:26;;;;;;;;;;;;;;;;;;5045437;28;1689;-71
2022/06/12 05:44:52;;;;;;;;;;;;;;;;;;5045984;28;1414;-71
2022/06/12 05:47:20;;;;;;;;;;;;;;;;;;5028265;28;1498;-71
2022/06/12 05:49:46;;;;;;;;;;;;;;;;;;5036206;28;1452;-71
2022/06/12 05:52:12;;;;;;;;;;;;;;;;;;5051285;28;1142;-71
2022/06/12 05:54:38;;;;;;;;;;;;;;;;;;5048657;28;1316;-72
2022/06/12 05:57:05;;;;;;;;;;;;;;;;;;5031030;28;1462;-72
2022/06/12 05:59:31;;;;;;;;;;;;;;;;;;5036105;28;1914;-72
2022/06/12 06:01:57;;;;;;;;;;;;;;;;;;5037218;28;1530;-71
2022/06/12 06:04:25;;;;;;;;;;;;;;;;;;5042411;28;1337;-72
2022/06/12 06:06:52;;;;;;;;;;;;;;;;;;5042802;28;1153;-71
2022/06/12 06:09:18;;;;;;;;;;;;;;;;;;5038149;28;1654;-71
2022/06/12 06:11:44;;;;;;;;;;;;;;;;;;5044409;28;1381;-70
2022/06/12 06:14:11;;;;;;;;;;;;;;;;;;5033149;28;1440;-70
2022/06/12 06:16:37;;;;;;;;;;;;;;;;;;5037894;28;1341;-72
2022/06/12 06:19:03;;;;;;;;;;;;;;;;;;5032002;28;1906;-70
2022/06/12 06:21:31;;;;;;;;;;;;;;;;;;5035845;28;1092;-72
2022/06/12 06:23:57;;;;;;;;;;;;;;;;;;5042684;28;1169;-71
2022/06/12 06:26:23;;;;;;;;;;;;;;;;;;5041450;28;1349;-72
2022/06/12 06:28:50;;;;;;;;;;;;;;;;;;5038238;28;1391;-71
2022/06/12 06:31:16;;;;;;;;;;;;;;;;;;5038975;28;1419;-70
2022/06/12 06:33:42;;;;;;;;;;;;;;;;;;5027684;28;1407;-70
2022/06/12 06:36:09;;;;;;;;;;;;;;;;;;5042266;28;1162;-70
2022/06/12 06:38:36;;;;;;;;;;;;;;;;;;5052481;28;1918;-71
2022/06/12 06:41:02;;;;;;;;;;;;;;;;;;5052799;28;1052;-72
2022/06/12 06:43:28;;;;;;;;;;;;;;;;;;5050957;28;938;-71
2022/06/12 06:48:39;;;;;;;;;;;;;;;;;;5052632;28;1410;-71
2022/06/12 06:51:05;;;;;;;;;;;;;;;;;;5052441;28;791;-71
2022/06/12 06:53:31;;;;;;;;;;;;;;;;;;5030535;28;2018;-71
2022/06/12 06:55:59;;;;;;;;;;;;;;;;;;5032493;28;1141;-71
2022/06/12 06:58:25;;;;;;;;;;;;;;;;;;5032241;28;1297;-72
2022/06/12 07:00:52;;;;;;;;;;;;;;;;;;5032523;28;1977;-72
2022/06/12 07:03:18;;;;;;;;;;;;;;;;;;5032370;28;990;-72
2022/06/12 07:05:45;;;;;;;;;;;;;;;;;;5032507;28;962;-72
2022/06/12 07:08:12;;;;;;;;;;;;;;;;;;5031996;28;1353;-71
2022/06/12 07:10:39;;;;;;;;;;;;;;;;;;5031056;28;1013;-72
2022/06/12 07:13:07;;;;;;;;;;;;;;;;;;5032173;28;1076;-71
2022/06/12 07:15:33;;;;;;;;;;;;;;;;;;5032421;28;1072;-72
2022/06/12 07:18:00;;;;;;;;;;;;;;;;;;5031953;28;1318;-71
2022/06/12 07:20:28;;;;;;;;;;;;;;;;;;5032132;28;1952;-72
2022/06/12 07:22:54;;;;;;;;;;;;;;;;;;5032198;28;882;-73
2022/06/12 07:25:21;;;;;;;;;;;;;;;;;;5030676;28;1236;-72
2022/06/12 07:27:47;;;;;;;;;;;;;;;;;;5031996;28;927;-70
2022/06/12 07:30:16;;;;;;;;;;;;;;;;;;5031921;28;1391;-71
2022/06/12 07:32:42;;;;;;;;;;;;;;;;;;5030638;28;1191;-71
2022/06/12 07:35:08;;;;;;;;;;;;;;;;;;5031961;28;933;-70
2022/06/12 07:37:35;;;;;;;;;;;;;;;;;;5030294;28;1266;-72
2022/06/12 07:40:02;;;;;;;;;;;;;;;;;;5031517;28;1981;-72
2022/06/12 07:42:28;;;;;;;;;;;;;;;;;;5031326;28;710;-72
2022/06/12 07:44:54;;;;;;;;;;;;;;;;;;5031346;28;1075;-72
2022/06/12 07:47:24;;;;;;;;;;;;;;;;;;5031462;28;1142;-72
2022/06/12 07:49:50;;;;;;;;;;;;;;;;;;5031945;28;1349;-71
2022/06/12 07:52:16;;;;;;;;;;;;;;;;;;5031445;28;1075;-72
2022/06/12 07:54:42;;;;;;;;;;;;;;;;;;5031736;28;798;-72
2022/06/12 07:57:09;;;;;;;;;;;;;;;;;;5031185;28;1076;-72
2022/06/12 07:59:35;;;;;;;;;;;;;;;;;;5030088;28;1910;-71
2022/06/12 08:02:01;;;;;;;;;;;;;;;;;;5031321;28;949;-70
2022/06/12 08:04:29;;;;;;;;;;;;;;;;;;5030001;28;1236;-72
2022/06/12 08:06:55;;;;;;;;;;;;;;;;;;5031122;28;1088;-72
2022/06/12 08:09:22;;;;;;;;;;;;;;;;;;5031238;28;1365;-72
2022/06/12 08:11:49;;;;;;;;;;;;;;;;;;5030235;28;1139;-72
2022/06/12 08:14:15;;;;;;;;;;;;;;;;;;5025214;28;1459;-72
2022/06/12 08:16:42;;;;;;;;;;;;;;;;;;5021135;28;1649;-73
2022/06/12 08:20:24;;;;;;;;;;;;;;;;;;5030862;28;1902;-71
2022/06/12 08:21:55;;;;;;;;;;;;;;;;;;5030818;28;1485;-70
2022/06/12 08:24:22;;;;;;;;;;;;;;;;;;5031116;28;1134;-71
2022/06/12 08:26:48;;;;;;;;;;;;;;;;;;5031246;28;1067;-71
2022/06/12 08:29:14;;;;;;;;;;;;;;;;;;5031117;28;1304;-70
2022/06/12 08:31:42;;;;;;;;;;;;;;;;;;5029879;28;1232;-71
2022/06/12 08:34:09;;;;;;;;;;;;;;;;;;5031220;28;961;-70
2022/06/12 08:36:36;;;;;;;;;;;;;;;;;;5031127;28;1075;-71
2022/06/12 08:39:03;;;;;;;;;;;;;;;;;;5030955;28;1431;-70
2022/06/12 08:41:33;;;;;;;;;;;;;;;;;;5031337;28;1918;-72
2022/06/12 08:44:00;;;;;;;;;;;;;;;;;;5031020;28;1083;-71
2022/06/12 08:46:28;;;;;;;;;;;;;;;;;;5030766;28;1072;-71
2022/06/12 08:48:55;;;;;;;;;;;;;;;;;;5031041;28;1322;-71
2022/06/12 08:51:23;;;;;;;;;;;;;;;;;;5031017;28;791;-70
2022/06/12 08:53:51;;;;;;;;;;;;;;;;;;5029331;28;1360;-72
2022/06/12 08:56:20;;;;;;;;;;;;;;;;;;5030569;28;1112;-70
2022/06/12 08:58:47;;;;;;;;;;;;;;;;;;5030927;28;1463;-70
2022/06/12 09:01:14;;;;;;;;;;;;;;;;;;5030645;28;1914;-70
2022/06/12 09:03:41;;;;;;;;;;;;;;;;;;5031176;28;1071;-71
2022/06/12 09:06:10;;;;;;;;;;;;;;;;;;5029305;28;1383;-70
2022/06/12 09:08:38;;;;;;;;;;;;;;;;;;5030818;28;1285;-71
2022/06/12 09:11:07;;;;;;;;;;;;;;;;;;5030693;28;909;-71
2022/06/12 09:13:39;;;;;;;;;;;;;;;;;;5030946;28;1075;-71
2022/06/12 09:16:13;;;;;;;;;;;;;;;;;;5030493;28;1063;-70
2022/06/12 09:18:42;;;;;;;;;;;;;;;;;;5030628;28;1263;-70
2022/06/12 09:21:09;;;;;;;;;;;;;;;;;;5030618;28;1914;-71
2022/06/12 09:23:37;;;;;;;;;;;;;;;;;;5030611;28;930;-71
2022/06/12 09:26:07;;;;;;;;;;;;;;;;;;5030337;28;1112;-71
2022/06/12 09:28:38;;;;;;;;;;;;;;;;;;5030296;28;1314;-70
2022/06/12 09:31:06;;;;;;;;;;;;;;;;;;5030205;28;1088;-70
2022/06/12 09:33:36;;;;;;;;;;;;;;;;;;5030264;28;876;-71
2022/06/12 09:36:05;;;;;;;;;;;;;;;;;;5030284;28;1127;-70
2022/06/12 09:38:37;;;;;;;;;;;;;;;;;;5029929;28;1359;-70
2022/06/12 09:41:07;;;;;;;;;;;;;;;;;;5027537;28;1970;-70
2022/06/12 09:43:35;;;;;;;;;;;;;;;;;;5032921;28;1593;-70
2022/06/12 09:46:04;;;;;;;;;;;;;;;;;;5029989;28;1060;-69
2022/06/12 09:48:37;;;;;;;;;;;;;;;;;;5023493;28;1514;-71
2022/06/12 09:51:08;;;;;;;;;;;;;;;;;;5038873;28;1234;-71
2022/06/12 09:53:50;;;;;;;;;;;;;;;;;;5035534;28;1331;-70
2022/06/12 09:56:17;;;;;;;;;;;;;;;;;;4993171;28;1398;-71
2022/06/12 09:58:44;;;;;;;;;;;;;;;;;;5045985;28;1409;-72
2022/06/12 10:01:13;;;;;;;;;;;;;;;;;;5049512;28;1891;-72
2022/06/12 10:03:40;;;;;;;;;;;;;;;;;;5031708;28;1394;-72
2022/06/12 10:06:08;;;;;;;;;;;;;;;;;;5035085;28;1620;-70
2022/06/12 10:08:35;;;;;;;;;;;;;;;;;;5035708;28;1466;-72
2022/06/12 10:11:03;;;;;;;;;;;;;;;;;;5041922;28;1162;-72
2022/06/12 10:13:32;;;;;;;;;;;;;;;;;;5053242;28;1040;-73
2022/06/12 10:15:59;;;;;;;;;;;;;;;;;;5029950;28;1475;-74
2022/06/12 10:18:29;;;;;;;;;;;;;;;;;;5035079;28;1412;-73
2022/06/12 10:20:56;;;;;;;;;;;;;;;;;;5033290;28;1922;-73
2022/06/12 10:23:22;;;;;;;;;;;;;;;;;;5031746;28;1447;-72
2022/06/12 10:25:50;;;;;;;;;;;;;;;;;;5031921;28;1505;-72
2022/06/12 10:28:21;;;;;;;;;;;;;;;;;;5039094;28;1497;-72
2022/06/12 10:30:57;;;;;;;;;;;;;;;;;;5049510;28;1275;-72
2022/06/12 10:33:24;;;;;;;;;;;;;;;;;;5053168;28;766;-73
2022/06/12 10:35:53;;;;;;;;;;;;;;;;;;5051285;28;1409;-72
2022/06/12 10:38:20;;;;;;;;;;;;;;;;;;5033370;28;1544;-74
2022/06/12 10:40:53;;;;;;;;;;;;;;;;;;5048580;28;1910;-72
2022/06/12 10:43:24;;;;;;;;;;;;;;;;;;5039576;28;1131;-72
2022/06/12 10:45:55;;;;;;;;;;;;;;;;;;5047530;28;1337;-72
2022/06/12 10:48:22;;;;;;;;;;;;;;;;;;5029388;28;1627;-73
2022/06/12 10:50:50;;;;;;;;;;;;;;;;;;5043188;28;1228;-72
2022/06/12 10:53:19;;;;;;;;;;;;;;;;;;5051056;28;1307;-72
2022/06/12 10:55:51;;;;;;;;;;;;;;;;;;5021895;28;1409;-74
2022/06/12 10:58:25;;;;;;;;;;;;;;;;;;5011213;28;1385;-74
2022/06/12 11:00:52;;;;;;;;;;;;;;;;;;5012752;28;1973;-74
2022/06/12 11:03:19;;;;;;;;;;;;;;;;;;5020731;28;1403;-72
2022/06/12 11:05:47;;;;;;;;;;;;;;;;;;5037594;28;1436;-73
2022/06/12 11:08:20;;;;;;;;;;;;;;;;;;5038355;28;1484;-71
2022/06/12 11:10:49;;;;;;;;;;;;;;;;;;5040638;28;1190;-72
2022/06/12 11:13:19;;;;;;;;;;;;;;;;;;5012472;28;1060;-72
2022/06/12 11:15:57;;;;;;;;;;;;;;;;;;5012637;28;1064;-73
2022/06/12 11:18:25;;;;;;;;;;;;;;;;;;5011646;28;1495;-71
2022/06/12 11:20:53;;;;;;;;;;;;;;;;;;5039647;28;1938;-71
2022/06/12 11:23:26;;;;;;;;;;;;;;;;;;5043332;28;1345;-73
2022/06/12 11:25:55;;;;;;;;;;;;;;;;;;5038246;28;1599;-72
2022/06/12 11:28:26;;;;;;;;;;;;;;;;;;5030371;28;1314;-71
2022/06/12 11:30:53;;;;;;;;;;;;;;;;;;5032027;28;960;-73
2022/06/12 11:33:24;;;;;;;;;;;;;;;;;;5030496;28;955;-71
2022/06/12 11:35:51;;;;;;;;;;;;;;;;;;5039019;28;1380;-71
2022/06/12 11:38:30;;;;;;;;;;;;;;;;;;5029519;28;1492;-72
2022/06/12 11:40:57;;;;;;;;;;;;;;;;;;5030516;28;1922;-71
2022/06/12 11:43:26;;;;;;;;;;;;;;;;;;5041174;28;1424;-71
2022/06/12 11:45:55;;;;;;;;;;;;;;;;;;5043330;28;1287;-72
2022/06/12 11:48:34;;;;;;;;;;;;;;;;;;5051317;28;1298;-71
2022/06/12 11:51:03;;;;;;;;;;;;;;;;;;5050495;28;1380;-72
2022/06/12 11:53:36;;;;;;;;;;;;;;;;;;5032208;28;1392;-72
2022/06/12 11:56:04;;;;;;;;;;;;;;;;;;5038514;28;1462;-71
2022/06/12 11:58:40;;;;;;;;;;;;;;;;;;5044167;28;1458;-72
2022/06/12 12:01:09;;;;;;;;;;;;;;;;;;5035303;28;1988;-71
2022/06/12 12:03:42;;;;;;;;;;;;;;;;;;5034356;28;1155;-71
2022/06/12 12:06:13;;;;;;;;;;;;;;;;;;5042909;28;1439;-71
2022/06/12 12:08:44;;;;;;;;;;;;;;;;;;5026584;28;1408;-72
2022/06/12 12:11:13;;;;;;;;;;;;;;;;;;5035021;28;1309;-72
2022/06/12 12:13:42;;;;;;;;;;;;;;;;;;5025785;28;1138;-72
2022/06/12 12:16:12;;;;;;;;;;;;;;;;;;5031909;28;1436;-71
2022/06/12 12:18:39;;;;;;;;;;;;;;;;;;5034455;28;1652;-73
2022/06/12 12:21:07;;;;;;;;;;;;;;;;;;5022850;28;2035;-71
2022/06/12 12:23:34;;;;;;;;;;;;;;;;;;5021582;28;2003;-71
2022/06/12 12:26:03;;;;;;;;;;;;;;;;;;5038652;28;1094;-72
2022/06/12 12:28:31;;;;;;;;;;;;;;;;;;5030746;28;1381;-72
2022/06/12 12:30:59;;;;;;;;;;;;;;;;;;5024872;28;1360;-72
2022/06/12 12:33:25;;;;;;;;;;;;;;;;;;5038585;28;1216;-72
2022/06/12 12:41:27;;;;;;;;;;;;;;;;;;4974421;28;1991;-72
2022/06/12 12:43:53;;;;;;;;;;;;;;;;;;5036194;28;1119;-72
2022/06/12 12:46:20;;;;;;;;;;;;;;;;;;5031492;28;1424;-72
2022/06/12 12:48:47;;;;;;;;;;;;;;;;;;5037899;28;1428;-72
2022/06/12 12:51:22;;;;;;;;;;;;;;;;;;5033716;28;1330;-72
2022/06/12 12:53:49;;;;;;;;;;;;;;;;;;5029110;28;1417;-72
2022/06/12 12:56:16;;;;;;;;;;;;;;;;;;5038937;28;1588;-71
2022/06/12 12:58:55;;;;;;;;;;;;;;;;;;5041103;28;1412;-72
2022/06/12 13:01:23;;;;;;;;;;;;;;;;;;5023451;28;1980;-72
2022/06/12 13:03:50;;;;;;;;;;;;;;;;;;5040686;28;1411;-71
2022/06/12 13:06:23;;;;;;;;;;;;;;;;;;5023051;28;1418;-73
2022/06/12 13:08:52;;;;;;;;;;;;;;;;;;5035745;28;1545;-73
2022/06/12 13:11:23;;;;;;;;;;;;;;;;;;5050140;28;1391;-73
2022/06/12 13:13:53;;;;;;;;;;;;;;;;;;5038544;28;1479;-72
2022/06/12 13:16:22;;;;;;;;;;;;;;;;;;5046837;28;1427;-72
2022/06/12 13:18:53;;;;;;;;;;;;;;;;;;5038452;28;1451;-72
2022/06/12 13:21:21;;;;;;;;;;;;;;;;;;5050280;28;1974;-72
2022/06/12 13:23:53;;;;;;;;;;;;;;;;;;5045221;28;1467;-71
2022/06/12 13:26:19;;;;;;;;;;;;;;;;;;5027928;28;1418;-72
2022/06/12 13:28:55;;;;;;;;;;;;;;;;;;5029236;28;1483;-72
2022/06/12 13:31:21;;;;;;;;;;;;;;;;;;5034772;28;1427;-72
2022/06/12 13:33:51;;;;;;;;;;;;;;;;;;5032977;28;1489;-71
2022/06/12 13:36:23;;;;;;;;;;;;;;;;;;5028864;28;1593;-72
2022/06/12 13:38:50;;;;;;;;;;;;;;;;;;5018880;28;1475;-72
2022/06/12 13:41:22;;;;;;;;;;;;;;;;;;5043817;28;1981;-72
2022/06/12 13:43:48;;;;;;;;;;;;;;;;;;5054222;28;598;-72
2022/06/12 13:46:20;;;;;;;;;;;;;;;;;;5041400;28;1478;-72
2022/06/12 13:48:46;;;;;;;;;;;;;;;;;;5036091;28;1447;-71
2022/06/12 13:51:16;;;;;;;;;;;;;;;;;;5041974;28;1276;-73
2022/06/12 13:53:43;;;;;;;;;;;;;;;;;;5033834;28;949;-72
2022/06/12 13:56:10;;;;;;;;;;;;;;;;;;5032174;28;1173;-72
2022/06/12 13:58:37;;;;;;;;;;;;;;;;;;5033668;28;1332;-72
2022/06/12 14:01:05;;;;;;;;;;;;;;;;;;5027651;28;1914;-72
2022/06/12 14:03:37;;;;;;;;;;;;;;;;;;5040781;28;1405;-73
2022/06/12 14:06:05;;;;;;;;;;;;;;;;;;5052071;28;1217;-72
2022/06/12 14:08:32;;;;;;;;;;;;;;;;;;5050616;28;1385;-72
2022/06/12 14:10:58;;;;;;;;;;;;;;;;;;5036890;28;1435;-71
2022/06/12 14:13:26;;;;;;;;;;;;;;;;;;5048065;28;1364;-73
2022/06/12 14:15:52;;;;;;;;;;;;;;;;;;5031712;28;1499;-71
2022/06/12 14:18:23;;;;;;;;;;;;;;;;;;5043474;28;1590;-72
2022/06/12 14:20:57;;;;;;;;;;;;;;;;;;5036637;28;1141;-72
2022/06/12 14:23:25;;;;;;;;;;;;;;;;;;5033376;28;988;-72
2022/06/12 14:25:52;;;;;;;;;;;;;;;;;;5033263;28;977;-73
2022/06/12 14:28:26;;;;;;;;;;;;;;;;;;5032461;28;1524;-72
2022/06/12 14:31:03;;;;;;;;;;;;;;;;;;5043193;28;1029;-72
2022/06/12 14:33:33;;;;;;;;;;;;;;;;;;5048407;28;1483;-72
2022/06/12 14:36:01;;;;;;;;;;;;;;;;;;5013328;28;1467;-72
2022/06/12 14:38:31;;;;;;;;;;;;;;;;;;5018557;28;1676;-72
2022/06/12 14:40:58;;;;;;;;;;;;;;;;;;5032203;28;1087;-71
2022/06/12 14:43:26;;;;;;;;;;;;;;;;;;5030221;28;1973;-72
2022/06/12 14:45:53;;;;;;;;;;;;;;;;;;5026571;28;1451;-72
2022/06/12 14:48:20;;;;;;;;;;;;;;;;;;5051925;28;1338;-72
2022/06/12 14:50:46;;;;;;;;;;;;;;;;;;5052093;28;1137;-72
2022/06/12 14:53:14;;;;;;;;;;;;;;;;;;5051417;28;1119;-72
2022/06/12 14:55:41;;;;;;;;;;;;;;;;;;5052210;28;698;-73
2022/06/12 14:58:13;;;;;;;;;;;;;;;;;;5050352;28;1361;-72
2022/06/12 15:00:39;;;;;;;;;;;;;;;;;;5029886;28;1399;-72
2022/06/12 15:03:06;;;;;;;;;;;;;;;;;;5039700;28;1922;-73
2022/06/12 15:05:32;;;;;;;;;;;;;;;;;;5045283;28;1364;-72
2022/06/12 15:07:58;;;;;;;;;;;;;;;;;;5037931;28;1519;-72
2022/06/12 15:10:25;;;;;;;;;;;;;;;;;;5051791;28;806;-72
2022/06/12 15:12:52;;;;;;;;;;;;;;;;;;5036750;28;1319;-73
2022/06/12 15:15:19;;;;;;;;;;;;;;;;;;5032952;28;1479;-73
2022/06/12 15:17:45;;;;;;;;;;;;;;;;;;5026381;28;1323;-73
2022/06/12 15:20:12;;;;;;;;;;;;;;;;;;5016988;28;1380;-73
2022/06/12 15:22:38;;;;;;;;;;;;;;;;;;5037464;28;1927;-73
2022/06/12 15:25:04;;;;;;;;;;;;;;;;;;5048651;28;1146;-72
2022/06/12 15:30:16;;;;;;;;;;;;;;;;;;5031397;28;1410;-72
2022/06/12 15:32:44;;;;;;;;;;;;;;;;;;5034468;28;1214;-72
2022/06/12 15:35:18;;;;;;;;;;;;;;;;;;5046840;28;1384;-72
2022/06/12 15:37:45;;;;;;;;;;;;;;;;;;5028866;28;1414;-72
2022/06/12 15:40:14;;;;;;;;;;;;;;;;;;5039666;28;1717;-72
2022/06/12 15:42:42;;;;;;;;;;;;;;;;;;5035296;28;1981;-72
2022/06/12 15:45:09;;;;;;;;;;;;;;;;;;5043308;28;1165;-73
2022/06/12 15:47:36;;;;;;;;;;;;;;;;;;5035512;28;1434;-73
2022/06/12 15:50:02;;;;;;;;;;;;;;;;;;5038287;28;1397;-73
2022/06/12 15:52:30;;;;;;;;;;;;;;;;;;5026522;28;1493;-74
2022/06/12 15:54:56;;;;;;;;;;;;;;;;;;5036235;28;1353;-72
2022/06/12 15:57:22;;;;;;;;;;;;;;;;;;5044333;28;1173;-73
2022/06/12 15:59:50;;;;;;;;;;;;;;;;;;5049967;28;1403;-73
2022/06/12 16:02:17;;;;;;;;;;;;;;;;;;5041599;28;1983;-74
2022/06/12 16:04:43;;;;;;;;;;;;;;;;;;5046503;28;1201;-73
2022/06/12 16:07:09;;;;;;;;;;;;;;;;;;5050012;28;1340;-73
2022/06/12 16:09:36;;;;;;;;;;;;;;;;;;5043061;28;1356;-73
2022/06/12 16:12:02;;;;;;;;;;;;;;;;;;5041455;28;1149;-73
2022/06/12 16:14:28;;;;;;;;;;;;;;;;;;5051353;28;1055;-73
2022/06/12 16:16:56;;;;;;;;;;;;;;;;;;5050953;28;1075;-75
2022/06/12 16:19:22;;;;;;;;;;;;;;;;;;5047533;28;1491;-74
2022/06/12 16:21:48;;;;;;;;;;;;;;;;;;5042831;28;1979;-72
2022/06/12 16:24:14;;;;;;;;;;;;;;;;;;5043569;28;1383;-73
2022/06/12 16:26:41;;;;;;;;;;;;;;;;;;5020937;28;1340;-74
2022/06/12 16:29:08;;;;;;;;;;;;;;;;;;5026597;28;1394;-74
2022/06/12 16:31:34;;;;;;;;;;;;;;;;;;5018135;28;1111;-74
2022/06/12 16:34:02;;;;;;;;;;;;;;;;;;5031397;28;1123;-75
2022/06/12 16:36:29;;;;;;;;;;;;;;;;;;5022473;28;1410;-74
2022/06/12 16:38:55;;;;;;;;;;;;;;;;;;5019383;28;1466;-74
2022/06/12 16:41:45;;;;;;;;;;;;;;;;;;5029463;28;1400;-74
2022/06/12 16:44:07;;;;;;;;;;;;;;;;;;5044369;28;1332;-75
2022/06/12 16:46:34;;;;;;;;;;;;;;;;;;5035817;28;1440;-74
2022/06/12 16:49:01;;;;;;;;;;;;;;;;;;5040820;28;1431;-73
2022/06/12 16:51:27;;;;;;;;;;;;;;;;;;5040593;28;1188;-74
2022/06/12 16:53:53;;;;;;;;;;;;;;;;;;5046704;28;961;-74
2022/06/12 16:56:20;;;;;;;;;;;;;;;;;;5048462;28;1114;-73
2022/06/12 16:58:46;;;;;;;;;;;;;;;;;;5037195;28;1519;-73
2022/06/12 17:01:12;;;;;;;;;;;;;;;;;;5027938;28;1348;-73
2022/06/12 17:03:38;;;;;;;;;;;;;;;;;;5034353;28;1914;-73
2022/06/12 17:06:06;;;;;;;;;;;;;;;;;;5030724;28;913;-74
2022/06/12 17:08:32;;;;;;;;;;;;;;;;;;5027291;28;1404;-73
2022/06/12 17:10:58;;;;;;;;;;;;;;;;;;5038180;28;1131;-73
2022/06/12 17:13:24;;;;;;;;;;;;;;;;;;5045567;28;1495;-73
2022/06/12 17:15:51;;;;;;;;;;;;;;;;;;5039196;28;1440;-73
2022/06/12 17:21:00;;;;;;;;;;;;;;;;;;5019862;28;1251;-74
2022/06/12 17:23:31;;;;;;;;;;;;;;;;;;5026410;28;1990;-73
2022/06/12 17:25:57;;;;;;;;;;;;;;;;;;5041832;28;1343;-74
2022/06/12 17:28:23;;;;;;;;;;;;;;;;;;5054225;28;1319;-73